createdAt,value
2023-12-14T00:00:10.259Z,28.10
2023-12-14T00:02:38.793Z,36.93
2023-12-14T00:05:07.906Z,22.80
2023-12-14T00:07:36.190Z,24.93
2023-12-14T00:10:06.021Z,28.10
2023-12-14T00:12:34.361Z,26.57
2023-12-14T00:15:02.626Z,25.97
2023-12-14T00:17:32.900Z,24.73
2023-12-14T00:20:01.701Z,32.23
2023-12-14T00:22:29.966Z,26.53
2023-12-14T00:24:58.156Z,19.93
2023-12-14T00:27:26.314Z,26.00
2023-12-14T00:29:54.493Z,25.10
2023-12-14T00:32:22.632Z,22.47
2023-12-14T00:34:52.149Z,17.60
2023-12-14T00:37:20.378Z,19.97
2023-12-14T00:39:48.526Z,21.80
2023-12-14T00:42:16.698Z,21.60
2023-12-14T00:44:44.857Z,18.87
2023-12-14T00:47:13.104Z,22.13
2023-12-14T00:49:41.361Z,17.10
2023-12-14T00:52:10.903Z,14.93
2023-12-14T00:54:39.023Z,12.57
2023-12-14T00:57:07.306Z,13.27
2023-12-14T00:59:35.544Z,13.07
2023-12-14T01:02:03.766Z,12.77
2023-12-14T01:04:32.323Z,12.17
2023-12-14T01:07:00.566Z,10.63
2023-12-14T01:09:30.760Z,13.87
2023-12-14T01:11:59.830Z,13.87
2023-12-14T01:14:28.614Z,16.43
2023-12-14T01:16:56.912Z,11.30
2023-12-14T01:19:26.341Z,11.40
2023-12-14T01:21:56.599Z,11.97
2023-12-14T01:24:24.786Z,15.07
2023-12-14T01:26:54.265Z,11.60
2023-12-14T01:29:22.460Z,11.83
2023-12-14T01:31:50.664Z,12.90
2023-12-14T01:34:18.956Z,11.67
2023-12-14T01:36:47.185Z,12.73
2023-12-14T01:39:16.693Z,11.60
2023-12-14T01:41:44.918Z,13.03
2023-12-14T01:44:14.467Z,11.73
2023-12-14T01:46:42.633Z,11.40
2023-12-14T01:49:10.847Z,14.40
2023-12-14T01:51:39.309Z,11.90
2023-12-14T01:54:07.495Z,12.63
2023-12-14T01:56:35.710Z,11.30
2023-12-14T01:59:04.104Z,13.70
2023-12-14T02:01:43.470Z,9.70
2023-12-14T02:04:12.959Z,11.87
2023-12-14T02:06:41.835Z,10.43
2023-12-14T02:09:10.876Z,9.67
2023-12-14T02:11:39.361Z,14.10
2023-12-14T02:14:10.631Z,14.27
2023-12-14T02:16:40.488Z,9.17
2023-12-14T02:19:09.264Z,8.97
2023-12-14T02:21:37.549Z,12.83
2023-12-14T02:24:07.443Z,8.70
2023-12-14T02:26:35.594Z,9.10
2023-12-14T02:29:03.796Z,8.13
2023-12-14T02:31:32.141Z,10.53
2023-12-14T02:34:00.397Z,10.10
2023-12-14T02:36:28.550Z,14.90
2023-12-14T02:38:56.861Z,9.53
2023-12-14T02:41:27.436Z,8.43
2023-12-14T02:43:55.569Z,8.90
2023-12-14T02:46:23.945Z,11.47
2023-12-14T02:48:52.157Z,9.47
2023-12-14T02:51:20.467Z,8.67
2023-12-14T02:53:48.645Z,11.00
2023-12-14T02:56:16.811Z,11.13
2023-12-14T02:58:50.320Z,8.70
2023-12-14T03:01:21.441Z,11.70
2023-12-14T03:03:49.843Z,10.90
2023-12-14T03:06:18.115Z,13.90
2023-12-14T03:08:46.281Z,19.80
2023-12-14T03:11:24.766Z,10.57
2023-12-14T03:13:54.473Z,12.57
2023-12-14T03:16:23.584Z,13.50
2023-12-14T03:18:54.282Z,13.20
2023-12-14T03:21:22.711Z,18.83
2023-12-14T03:23:51.070Z,12.07
2023-12-14T03:26:19.237Z,13.73
2023-12-14T03:28:47.441Z,12.60
2023-12-14T03:31:17.223Z,13.20
2023-12-14T03:33:45.789Z,15.10
2023-12-14T03:36:14.069Z,13.10
2023-12-14T03:38:42.191Z,13.43
2023-12-14T03:41:10.687Z,12.37
2023-12-14T03:43:39.137Z,15.73
2023-12-14T03:46:08.043Z,13.17
2023-12-14T03:48:37.540Z,16.03
2023-12-14T03:51:06.934Z,14.80
2023-12-14T03:53:35.273Z,14.27
2023-12-14T03:56:03.633Z,14.23
2023-12-14T03:58:31.869Z,15.37
2023-12-14T04:01:00.095Z,13.40
2023-12-14T04:03:28.276Z,13.73
2023-12-14T04:05:58.121Z,18.37
2023-12-14T04:08:26.355Z,17.67
2023-12-14T04:10:54.576Z,17.67
2023-12-14T04:13:22.760Z,15.30
2023-12-14T04:15:50.957Z,19.07
2023-12-14T04:18:19.153Z,17.03
2023-12-14T04:20:47.411Z,15.37
2023-12-14T04:23:17.138Z,20.10
2023-12-14T04:25:45.402Z,20.07
2023-12-14T04:28:13.639Z,20.40
2023-12-14T04:30:42.648Z,19.03
2023-12-14T04:33:10.851Z,20.00
2023-12-14T04:35:39.130Z,16.37
2023-12-14T04:38:07.302Z,21.40
2023-12-14T04:40:36.819Z,15.70
2023-12-14T04:43:04.958Z,18.27
2023-12-14T04:45:33.453Z,14.80
2023-12-14T04:48:01.852Z,16.83
2023-12-14T04:50:30.153Z,16.10
2023-12-14T04:52:58.317Z,17.43
2023-12-14T04:55:26.541Z,16.17
2023-12-14T04:57:56.134Z,15.10
2023-12-14T05:00:24.497Z,14.23
2023-12-14T05:02:52.622Z,18.63
2023-12-14T05:05:20.737Z,13.67
2023-12-14T05:07:48.967Z,15.73
2023-12-14T05:10:17.461Z,15.13
2023-12-14T05:12:45.834Z,20.73
2023-12-14T05:15:15.583Z,15.37
2023-12-14T05:17:43.807Z,16.70
2023-12-14T05:20:13.418Z,21.23
2023-12-14T05:22:41.660Z,22.80
2023-12-14T05:25:11.102Z,16.13
2023-12-14T05:27:39.367Z,18.40
2023-12-14T05:30:09.653Z,21.83
2023-12-14T05:32:39.627Z,22.27
2023-12-14T05:35:10.701Z,29.93
2023-12-14T05:37:41.059Z,22.37
2023-12-14T05:40:12.035Z,22.97
2023-12-14T05:42:40.412Z,23.70
2023-12-14T05:45:12.703Z,24.70
2023-12-14T05:47:43.469Z,23.80
2023-12-14T05:50:11.737Z,26.67
2023-12-14T05:52:41.632Z,28.07
2023-12-14T05:55:11.601Z,21.77
2023-12-14T05:57:39.938Z,27.70
2023-12-14T06:00:09.895Z,28.40
2023-12-14T06:02:39.649Z,18.53
2023-12-14T06:05:11.055Z,20.93
2023-12-14T06:07:39.765Z,22.17
2023-12-14T06:10:09.759Z,21.83
2023-12-14T06:12:38.280Z,20.00
2023-12-14T06:15:08.734Z,28.23
2023-12-14T06:17:38.456Z,24.70
2023-12-14T06:20:10.105Z,26.50
2023-12-14T06:22:39.207Z,21.40
2023-12-14T06:25:08.413Z,27.17
2023-12-14T06:27:36.741Z,29.70
2023-12-14T06:30:05.799Z,33.07
2023-12-14T06:32:34.477Z,25.87
2023-12-14T06:35:03.136Z,30.50
2023-12-14T06:37:32.918Z,33.40
2023-12-14T06:40:01.324Z,26.90
2023-12-14T06:42:30.032Z,32.90
2023-12-14T06:44:58.338Z,30.43
2023-12-14T06:47:26.857Z,33.37
2023-12-14T06:49:56.949Z,32.43
2023-12-14T06:52:25.321Z,38.67
2023-12-14T06:54:54.926Z,39.40
2023-12-14T06:57:24.775Z,34.50
2023-12-14T06:59:54.629Z,35.27
2023-12-14T07:02:22.895Z,31.13
2023-12-14T07:04:51.167Z,34.30
2023-12-14T07:07:19.457Z,33.80
2023-12-14T07:09:48.193Z,35.80
2023-12-14T07:12:17.891Z,34.83
2023-12-14T07:14:46.196Z,32.87
2023-12-14T07:17:14.495Z,34.87
2023-12-14T07:19:42.828Z,35.87
2023-12-14T07:22:10.072Z,36.57
2023-12-14T07:24:44.912Z,38.27
2023-12-14T07:27:21.991Z,27.57
2023-12-14T07:29:50.432Z,38.80
2023-12-14T07:32:18.789Z,43.30
2023-12-14T07:34:47.042Z,38.60
2023-12-14T07:37:15.589Z,34.80
2023-12-14T07:39:44.059Z,44.43
2023-12-14T07:42:12.382Z,43.43
2023-12-14T07:44:42.501Z,42.17
2023-12-14T07:47:10.769Z,46.67
2023-12-14T07:49:39.201Z,38.30
2023-12-14T07:52:08.658Z,42.70
2023-12-14T07:54:37.565Z,42.03
2023-12-14T07:57:06.164Z,42.23
2023-12-14T07:59:34.784Z,38.37
2023-12-14T08:02:05.015Z,37.33
2023-12-14T08:04:37.739Z,38.40
2023-12-14T08:07:06.131Z,39.53
2023-12-14T08:09:35.061Z,38.03
2023-12-14T08:12:03.370Z,45.43
2023-12-14T08:14:33.943Z,33.70
2023-12-14T08:17:02.245Z,38.27
2023-12-14T08:19:32.244Z,42.73
2023-12-14T08:22:01.209Z,33.67
2023-12-14T08:24:29.588Z,36.67
2023-12-14T08:26:57.923Z,31.63
2023-12-14T08:29:26.177Z,30.27
2023-12-14T08:31:58.114Z,35.53
2023-12-14T08:34:26.902Z,39.77
2023-12-14T08:36:58.250Z,35.47
2023-12-14T08:39:27.764Z,34.40
2023-12-14T08:41:56.099Z,34.73
2023-12-14T08:44:24.467Z,30.90
2023-12-14T08:46:52.971Z,34.07
2023-12-14T08:49:21.386Z,34.07
2023-12-14T08:51:49.624Z,30.60
2023-12-14T08:54:19.594Z,27.87
2023-12-14T08:56:48.689Z,26.13
2023-12-14T08:59:17.022Z,30.27
2023-12-14T09:01:45.498Z,22.40
2023-12-14T09:04:14.365Z,24.73
2023-12-14T09:06:45.919Z,30.83
2023-12-14T09:09:14.321Z,25.77
2023-12-14T09:11:44.010Z,24.13
2023-12-14T09:14:12.454Z,20.43
2023-12-14T09:16:40.788Z,18.47
2023-12-14T09:19:09.141Z,18.00
2023-12-14T09:21:44.271Z,19.30
2023-12-14T09:24:14.991Z,19.53
2023-12-14T09:26:44.693Z,22.30
2023-12-14T09:29:13.197Z,19.60
2023-12-14T09:31:44.812Z,16.70
2023-12-14T09:34:14.002Z,19.83
2023-12-14T09:36:42.587Z,16.57
2023-12-14T09:39:11.717Z,19.20
2023-12-14T09:41:40.710Z,14.60
2023-12-14T09:44:11.088Z,17.73
2023-12-14T09:46:45.736Z,19.93
2023-12-14T09:49:15.958Z,15.43
2023-12-14T09:51:44.457Z,14.57
2023-12-14T09:54:12.911Z,14.23
2023-12-14T09:56:49.219Z,16.63
2023-12-14T09:59:19.019Z,22.17
2023-12-14T10:01:47.691Z,18.43
2023-12-14T10:04:21.591Z,17.53
2023-12-14T10:06:50.598Z,15.40
2023-12-14T10:09:25.684Z,14.43
2023-12-14T10:12:06.311Z,13.70
2023-12-14T10:14:37.102Z,15.13
2023-12-14T10:17:18.776Z,16.67
2023-12-14T10:19:48.794Z,17.30
2023-12-14T10:22:19.652Z,17.20
2023-12-14T10:24:49.410Z,20.10
2023-12-14T10:27:18.738Z,17.13
2023-12-14T10:29:48.624Z,15.47
2023-12-14T10:32:16.983Z,13.60
2023-12-14T10:34:45.325Z,14.93
2023-12-14T10:37:15.522Z,21.87
2023-12-14T10:39:45.480Z,15.00
2023-12-14T10:42:21.615Z,14.70
2023-12-14T10:45:11.728Z,13.13
2023-12-14T10:47:48.497Z,21.40
2023-12-14T10:50:18.063Z,13.80
2023-12-14T10:52:48.009Z,13.43
2023-12-14T10:55:24.829Z,17.90
2023-12-14T10:57:54.270Z,11.63
2023-12-14T11:00:24.206Z,15.40
2023-12-14T11:02:54.284Z,17.50
2023-12-14T11:05:30.480Z,13.83
2023-12-14T11:08:05.132Z,13.57
2023-12-14T11:10:41.492Z,14.27
2023-12-14T11:13:13.436Z,18.57
2023-12-14T11:15:51.665Z,15.93
2023-12-14T11:18:28.804Z,11.73
2023-12-14T11:21:01.549Z,19.30
2023-12-14T11:23:34.948Z,12.03
2023-12-14T11:26:06.828Z,16.10
2023-12-14T11:28:37.819Z,11.03
2023-12-14T11:31:11.619Z,11.13
2023-12-14T11:33:43.686Z,13.03
2023-12-14T11:36:15.248Z,10.87
2023-12-14T11:38:45.019Z,10.20
2023-12-14T11:41:15.068Z,12.53
2023-12-14T11:43:45.677Z,20.27
2023-12-14T11:46:16.915Z,13.53
2023-12-14T11:48:47.275Z,10.73
2023-12-14T11:51:15.747Z,10.83
2023-12-14T11:53:49.072Z,10.53
2023-12-14T11:56:19.933Z,9.70
2023-12-14T11:58:49.908Z,8.73
2023-12-14T12:01:22.323Z,10.83
2023-12-14T12:03:50.967Z,12.30
2023-12-14T12:06:24.196Z,8.00
2023-12-14T12:08:53.421Z,8.20
2023-12-14T12:11:25.216Z,8.27
2023-12-14T12:13:54.274Z,11.00
2023-12-14T12:16:24.439Z,10.50
2023-12-14T12:18:54.061Z,9.90
2023-12-14T12:21:22.606Z,12.30
2023-12-14T12:23:50.978Z,10.73
2023-12-14T12:26:19.395Z,7.97
2023-12-14T12:28:49.299Z,9.07
2023-12-14T12:31:18.147Z,9.63
2023-12-14T12:33:48.242Z,7.77
2023-12-14T12:36:16.519Z,10.40
2023-12-14T12:38:44.779Z,9.20
2023-12-14T12:41:13.164Z,9.30
2023-12-14T12:43:41.478Z,10.33
2023-12-14T12:46:09.776Z,9.80
2023-12-14T12:48:38.897Z,10.30
2023-12-14T12:51:09.285Z,12.97
2023-12-14T12:53:37.691Z,10.40
2023-12-14T12:56:07.011Z,8.97
2023-12-14T12:58:35.334Z,10.40
2023-12-14T13:01:03.838Z,12.17
2023-12-14T13:03:32.240Z,10.10
2023-12-14T13:06:00.666Z,12.87
2023-12-14T13:08:30.369Z,11.30
2023-12-14T13:10:58.684Z,13.43
2023-12-14T13:13:27.001Z,11.00
2023-12-14T13:15:55.258Z,10.83
2023-12-14T13:18:23.599Z,11.50
2023-12-14T13:20:51.934Z,9.43
2023-12-14T13:23:20.349Z,10.30
2023-12-14T13:25:50.357Z,13.13
2023-12-14T13:28:18.915Z,10.30
2023-12-14T13:30:47.423Z,9.60
2023-12-14T13:33:16.020Z,10.50
2023-12-14T13:35:44.735Z,10.20
2023-12-14T13:38:13.216Z,12.00
2023-12-14T13:40:41.701Z,11.30
2023-12-14T13:43:12.358Z,11.00
2023-12-14T13:45:43.112Z,11.23
2023-12-14T13:48:12.327Z,8.77
2023-12-14T13:50:41.605Z,12.20
2023-12-14T13:53:10.061Z,11.67
2023-12-14T13:55:38.393Z,16.77
2023-12-14T13:58:06.796Z,14.07
2023-12-14T14:00:37.260Z,12.43
2023-12-14T14:03:06.766Z,12.33
2023-12-14T14:05:35.772Z,11.97
2023-12-14T14:08:04.947Z,14.10
2023-12-14T14:10:33.372Z,15.47
2023-12-14T14:13:01.845Z,9.47
2023-12-14T14:15:30.135Z,10.77
2023-12-14T14:17:59.864Z,9.10
2023-12-14T14:20:28.264Z,10.00
2023-12-14T14:22:57.302Z,10.00
2023-12-14T14:25:25.741Z,13.10
2023-12-14T14:27:54.279Z,10.13
2023-12-14T14:30:22.833Z,14.00
2023-12-14T14:32:51.185Z,10.13
2023-12-14T14:35:21.853Z,11.03
2023-12-14T14:37:51.295Z,8.47
2023-12-14T14:40:19.853Z,9.17
2023-12-14T14:42:48.221Z,12.70
2023-12-14T14:45:16.685Z,8.97
2023-12-14T14:47:45.089Z,10.33
2023-12-14T14:50:13.781Z,13.90
2023-12-14T14:52:43.596Z,6.70
2023-12-14T14:55:11.955Z,16.33
2023-12-14T14:57:40.262Z,7.80
2023-12-14T15:00:10.385Z,9.53
2023-12-14T15:02:38.882Z,8.87
2023-12-14T15:05:08.250Z,9.07
2023-12-14T15:07:36.592Z,14.50
2023-12-14T15:10:07.899Z,10.73
2023-12-14T15:12:36.673Z,8.20
2023-12-14T15:15:09.206Z,12.07
2023-12-14T15:17:39.293Z,10.50
2023-12-14T15:20:09.092Z,13.00
2023-12-14T15:22:38.045Z,12.43
2023-12-14T15:25:09.110Z,17.00
2023-12-14T15:27:38.917Z,10.47
2023-12-14T15:30:10.262Z,14.10
2023-12-14T15:32:40.856Z,12.97
2023-12-14T15:35:10.458Z,13.23
2023-12-14T15:37:38.776Z,13.97
2023-12-14T15:40:10.627Z,10.00
2023-12-14T15:42:39.193Z,14.90
2023-12-14T15:45:10.588Z,13.87
2023-12-14T15:47:39.212Z,21.50
2023-12-14T15:50:09.505Z,14.10
2023-12-14T15:52:38.177Z,22.27
2023-12-14T15:55:09.328Z,16.53
2023-12-14T15:57:38.408Z,17.60
2023-12-14T16:00:09.452Z,14.80
2023-12-14T16:02:39.202Z,11.50
2023-12-14T16:05:09.197Z,14.13
2023-12-14T16:07:38.018Z,15.53
2023-12-14T16:10:09.610Z,11.47
2023-12-14T16:12:38.438Z,12.80
2023-12-14T16:15:08.666Z,17.97
2023-12-14T16:17:37.042Z,20.80
2023-12-14T16:20:07.383Z,17.43
2023-12-14T16:22:36.780Z,14.40
2023-12-14T16:25:05.753Z,19.27
2023-12-14T16:27:35.591Z,14.53
2023-12-14T16:30:04.554Z,17.13
2023-12-14T16:32:33.528Z,11.03
2023-12-14T16:35:02.158Z,12.00
2023-12-14T16:37:32.009Z,10.17
2023-12-14T16:40:00.615Z,9.07
2023-12-14T16:42:29.288Z,9.63
2023-12-14T16:44:59.016Z,8.50
2023-12-14T16:47:27.343Z,11.07
2023-12-14T16:49:55.765Z,9.53
2023-12-14T16:52:24.130Z,11.20
2023-12-14T16:54:52.403Z,11.33
2023-12-14T16:57:22.620Z,10.20
2023-12-14T16:59:51.018Z,10.23
2023-12-14T17:02:20.786Z,10.43
2023-12-14T17:04:49.147Z,10.23
2023-12-14T17:07:17.924Z,13.83
2023-12-14T17:09:46.153Z,8.63
2023-12-14T17:12:14.496Z,7.77
2023-12-14T17:14:43.046Z,7.30
2023-12-14T17:17:11.343Z,11.30
2023-12-14T17:19:41.312Z,8.33
2023-12-14T17:22:09.557Z,5.97
2023-12-14T17:24:37.836Z,7.10
2023-12-14T17:27:06.439Z,8.13
2023-12-14T17:29:35.020Z,7.00
2023-12-14T17:32:04.017Z,9.30
2023-12-14T17:34:32.458Z,9.60
2023-12-14T17:37:02.066Z,9.70
2023-12-14T17:39:30.441Z,10.73
2023-12-14T17:41:58.845Z,9.83
2023-12-14T17:44:27.882Z,11.33
2023-12-14T17:46:58.677Z,9.40
2023-12-14T17:49:27.138Z,9.03
2023-12-14T17:51:55.518Z,8.60
2023-12-14T17:54:25.951Z,9.10
2023-12-14T17:56:54.269Z,16.80
2023-12-14T17:59:22.690Z,9.53
2023-12-14T18:01:52.702Z,10.73
2023-12-14T18:04:22.262Z,11.77
2023-12-14T18:06:50.538Z,8.80
2023-12-14T18:09:19.656Z,9.80
2023-12-14T18:11:49.320Z,10.20
2023-12-14T18:14:17.696Z,8.53
2023-12-14T18:16:46.037Z,8.60
2023-12-14T18:19:14.947Z,8.40
2023-12-14T18:21:45.861Z,9.60
2023-12-14T18:24:14.170Z,8.77
2023-12-14T18:26:42.422Z,11.37
2023-12-14T18:29:12.338Z,11.50
2023-12-14T18:31:40.679Z,10.80
2023-12-14T18:34:09.003Z,12.80
2023-12-14T18:36:37.742Z,10.70
2023-12-14T18:39:05.995Z,11.20
2023-12-14T18:41:34.440Z,10.50
2023-12-14T18:44:03.339Z,11.67
2023-12-14T18:46:33.142Z,14.07
2023-12-14T18:49:01.450Z,10.23
2023-12-14T18:51:29.894Z,12.93
2023-12-14T18:53:58.273Z,10.70
2023-12-14T18:56:28.796Z,12.70
2023-12-14T18:58:58.303Z,10.37
2023-12-14T19:01:26.801Z,12.73
2023-12-14T19:03:57.344Z,12.70
2023-12-14T19:06:25.781Z,9.73
2023-12-14T19:08:54.026Z,10.37
2023-12-14T19:11:22.667Z,12.33
2023-12-14T19:13:52.390Z,9.53
2023-12-14T19:16:25.823Z,12.07
2023-12-14T19:18:55.169Z,17.10
2023-12-14T19:21:25.780Z,10.90
2023-12-14T19:23:54.916Z,13.30
2023-12-14T19:26:25.835Z,12.50
2023-12-14T19:28:56.763Z,10.93
2023-12-14T19:31:26.943Z,12.37
2023-12-14T19:33:55.772Z,12.03
2023-12-14T19:36:25.569Z,10.33
2023-12-14T19:38:54.654Z,8.90
2023-12-14T19:41:23.679Z,11.23
2023-12-14T19:43:52.097Z,8.10
2023-12-14T19:46:22.276Z,8.30
2023-12-14T19:48:50.598Z,7.33
2023-12-14T19:51:18.888Z,7.80
2023-12-14T19:53:48.563Z,12.13
2023-12-14T19:56:17.052Z,9.10
2023-12-14T19:58:46.796Z,7.63
2023-12-14T20:01:15.390Z,9.40
2023-12-14T20:03:43.768Z,7.03
2023-12-14T20:06:21.488Z,9.93
2023-12-14T20:08:51.356Z,7.93
2023-12-14T20:11:20.735Z,8.10
2023-12-14T20:13:49.723Z,7.57
2023-12-14T20:16:18.132Z,6.87
2023-12-14T20:18:46.701Z,6.20
2023-12-14T20:21:15.137Z,7.97
2023-12-14T20:23:43.407Z,9.83
2023-12-14T20:26:22.403Z,8.40
2023-12-14T20:28:54.530Z,6.17
2023-12-14T20:31:22.923Z,7.00
2023-12-14T20:33:52.343Z,7.33
2023-12-14T20:36:20.836Z,6.03
2023-12-14T20:38:49.454Z,5.53
2023-12-14T20:41:20.411Z,5.93
2023-12-14T20:43:48.812Z,5.83
2023-12-14T20:46:17.338Z,7.03
2023-12-14T20:48:45.822Z,6.63
2023-12-14T20:51:15.233Z,4.77
2023-12-14T20:53:43.866Z,5.90
2023-12-14T20:56:12.330Z,5.03
2023-12-14T20:58:43.142Z,4.67
2023-12-14T21:01:11.442Z,5.50
2023-12-14T21:03:40.399Z,5.10
2023-12-14T21:06:09.795Z,4.57
2023-12-14T21:08:38.195Z,5.07
2023-12-14T21:11:07.476Z,4.93
2023-12-14T21:13:36.366Z,4.30
2023-12-14T21:16:07.287Z,4.90
2023-12-14T21:18:35.894Z,5.17
2023-12-14T21:21:06.007Z,4.73
2023-12-14T21:23:34.388Z,5.10
2023-12-14T21:26:06.069Z,5.43
2023-12-14T21:28:36.197Z,4.93
2023-12-14T21:31:06.734Z,6.00
2023-12-14T21:33:35.193Z,8.80
2023-12-14T21:36:03.930Z,5.20
2023-12-14T21:38:33.411Z,9.93
2023-12-14T21:41:01.856Z,5.20
2023-12-14T21:43:30.378Z,6.60
2023-12-14T21:45:58.644Z,4.67
2023-12-14T21:48:28.419Z,6.10
2023-12-14T21:50:56.928Z,6.07
2023-12-14T21:53:25.986Z,6.20
2023-12-14T21:55:54.354Z,5.97
2023-12-14T21:58:22.577Z,5.20
2023-12-14T22:00:50.869Z,6.37
2023-12-14T22:03:19.249Z,6.57
2023-12-14T22:05:49.151Z,6.60
2023-12-14T22:08:17.533Z,8.07
2023-12-14T22:10:45.943Z,6.60
2023-12-14T22:13:14.272Z,7.00
2023-12-14T22:15:42.627Z,6.73
2023-12-14T22:18:11.207Z,7.20
2023-12-14T22:20:39.551Z,7.47
2023-12-14T22:23:09.284Z,8.53
2023-12-14T22:25:37.529Z,6.30
2023-12-14T22:28:06.382Z,7.43
2023-12-14T22:30:34.762Z,11.10
2023-12-14T22:33:03.096Z,5.50
2023-12-14T22:35:31.520Z,5.20
2023-12-14T22:37:59.869Z,4.87
2023-12-14T22:40:29.477Z,5.33
2023-12-14T22:42:57.914Z,6.00
2023-12-14T22:45:26.268Z,6.20
2023-12-14T22:47:54.866Z,5.97
2023-12-14T22:50:23.262Z,5.60
2023-12-14T22:52:51.669Z,4.87
2023-12-14T22:55:19.911Z,5.50
2023-12-14T22:57:49.682Z,4.93
2023-12-14T23:00:22.890Z,5.10
2023-12-14T23:02:51.292Z,6.17
2023-12-14T23:05:19.729Z,5.10
2023-12-14T23:07:48.143Z,5.43
2023-12-14T23:10:16.701Z,6.77
2023-12-14T23:12:44.966Z,5.57
2023-12-14T23:15:15.920Z,5.70
2023-12-14T23:17:44.576Z,8.80
2023-12-14T23:20:13.783Z,6.63
2023-12-14T23:22:42.068Z,5.70
2023-12-14T23:25:10.882Z,6.87
2023-12-14T23:27:39.769Z,6.30
2023-12-14T23:30:09.562Z,6.40
2023-12-14T23:32:39.394Z,7.53
2023-12-14T23:35:09.084Z,5.80
2023-12-14T23:37:37.781Z,5.87
2023-12-14T23:40:07.377Z,7.70
2023-12-14T23:42:35.602Z,9.90
2023-12-14T23:45:03.911Z,7.80
2023-12-14T23:47:32.275Z,6.50
2023-12-14T23:50:02.127Z,7.63
2023-12-14T23:52:30.399Z,7.17
2023-12-14T23:54:58.798Z,6.70
2023-12-14T23:57:27.027Z,9.30
2023-12-14T23:59:55.297Z,6.57
